Karmel — 9HA2896 — position and weather

sailwx.info

Track history (hours):
 
Tides and Currents Weather Stations Pressure Air Temp Water Temp Dewpoint Dewpoint Depression Visibility Wind Speed Wind Dir Waves Ship Positions

Karmel

Last reported at 2017-Jul-26 12:29 UTC. Time now 2017-Jul-26 12:34 UTC.
Position N 60°43' E 028°44'.

Length 90 m; draft 3.9 m.

Type: Cargo ship. MMSI: 256632000.

Date/timePositionNaut miles runAvg speedWind from/ knotsBaromVisibWave heightAir tempDewpointWater temp
2017-Jul-26 12:29N 60°43' E 028°44'0 0.0
2017-Jul-26 11:59N 60°43' E 028°44'0 0.0
2017-Jul-26 11:29N 60°43' E 028°44'0 0.0
2017-Jul-26 10:59N 60°43' E 028°44'0 0.0
2017-Jul-26 10:29N 60°43' E 028°44'0 0.0
2017-Jul-26 09:59N 60°43' E 028°44'0 0.0
2017-Jul-26 09:29N 60°43' E 028°44'0 0.0
2017-Jul-26 08:59N 60°43' E 028°44'0 0.0
2017-Jul-26 08:29N 60°43' E 028°44'0 0.0
2017-Jul-26 07:59N 60°43' E 028°44'0 0.0
2017-Jul-26 07:28N 60°43' E 028°44'0 0.0
2017-Jul-26 06:59N 60°43' E 028°44'0 0.0
2017-Jul-26 06:28N 60°43' E 028°44'0 0.0
2017-Jul-26 05:58N 60°43' E 028°44'0 0.0
2017-Jul-26 05:29N 60°43' E 028°44'0 0.0
2017-Jul-26 04:59N 60°43' E 028°44'0 0.0
2017-Jul-26 04:29N 60°43' E 028°44'0 0.0
2017-Jul-26 03:59N 60°43' E 028°44'0 0.0
2017-Jul-26 03:29N 60°43' E 028°44'1 2.0
2017-Jul-26 03:01N 60°42' E 028°43'4 8.9
2017-Jul-26 02:31N 60°39' E 028°36'4 8.1
2017-Jul-26 02:00N 60°36' E 028°30'4 8.7
2017-Jul-26 01:30N 60°34' E 028°22'0 0.2
2017-Jul-26 01:00N 60°34' E 028°22'0 0.0
2017-Jul-26 00:25N 60°34' E 028°22'0 0.0
2017-Jul-26 00:00N 60°34' E 028°22'0 0.0
2017-Jul-25 23:30N 60°34' E 028°22'0 0.0
2017-Jul-25 23:00N 60°34' E 028°22'0 0.0
2017-Jul-25 22:30N 60°34' E 028°22'0 0.0
2017-Jul-25 22:00N 60°34' E 028°22'0 0.0
2017-Jul-25 21:30N 60°34' E 028°22'0 0.0
2017-Jul-25 21:00N 60°34' E 028°22'0 0.1
2017-Jul-25 20:30N 60°34' E 028°22'0 0.0
2017-Jul-25 20:00N 60°34' E 028°22'0 0.0
2017-Jul-25 19:30N 60°34' E 028°22'0 0.1
2017-Jul-25 19:00N 60°34' E 028°22'1 2.8
2017-Jul-25 18:30N 60°33' E 028°22'510.8
2017-Jul-25 18:00N 60°28' E 028°20'510.9
2017-Jul-25 17:30N 60°25' E 028°10'510.7
2017-Jul-25 17:00N 60°22' E 028°02'611.2
2017-Jul-25 16:30N 60°17' E 027°55'611.3
2017-Jul-25 16:01N 60°13' E 027°49'611.0
2017-Jul-25 15:30N 60°09' E 027°40'611.2
2017-Jul-25 15:00N 60°06' E 027°31'1111.1
2017-Jul-25 14:00N 60°01' E 027°12'511.0
2017-Jul-25 13:30N 59°58' E 027°02'611.0
2017-Jul-25 13:00N 59°59' E 026°51'510.9
2017-Jul-25 12:30N 59°59' E 026°40'511.0
2017-Jul-25 12:01N 59°58' E 026°30'611.0
2017-Jul-25 11:30N 59°56' E 026°19'611.2
2017-Jul-25 11:00N 59°55' E 026°08'611.1
2017-Jul-25 10:30N 59°53' E 025°58'611.0
2017-Jul-25 10:00N 59°51' E 025°47'510.9
2017-Jul-25 09:30N 59°50' E 025°37'510.5
2017-Jul-25 09:00N 59°48' E 025°27'611.2
2017-Jul-25 08:30N 59°44' E 025°21'611.1
2017-Jul-25 08:00N 59°39' E 025°15'510.9
2017-Jul-25 07:30N 59°35' E 025°08'510.8
2017-Jul-25 07:00N 59°31' E 025°00'2 4.4
2017-Jul-25 06:28N 59°30' E 024°56'0 0.0
2017-Jul-25 05:58N 59°30' E 024°56'0 0.0
2017-Jul-25 05:28N 59°30' E 024°56'0 0.0
2017-Jul-25 04:58N 59°30' E 024°56'0 0.0
2017-Jul-25 04:28N 59°30' E 024°56'0 0.0
2017-Jul-25 03:58N 59°30' E 024°56'0 0.0
2017-Jul-25 03:28N 59°30' E 024°56'0 0.0
2017-Jul-25 02:58N 59°30' E 024°56'0 0.0
2017-Jul-25 02:28N 59°30' E 024°56'0 0.0
2017-Jul-25 01:58N 59°30' E 024°56'0 0.0
2017-Jul-25 01:28N 59°30' E 024°56'0 0.0
2017-Jul-25 00:58N 59°30' E 024°56'0 0.0
2017-Jul-25 00:25N 59°30' E 024°56'0 0.0
2017-Jul-24 23:58N 59°30' E 024°56'0 0.0
2017-Jul-24 23:28N 59°30' E 024°56'0 0.0
2017-Jul-24 22:58N 59°30' E 024°56'0 0.0
2017-Jul-24 22:28N 59°30' E 024°56'0 0.0
2017-Jul-24 21:58N 59°30' E 024°56'0 0.0
2017-Jul-24 21:28N 59°30' E 024°56'0 0.0
2017-Jul-24 20:58N 59°30' E 024°56'0 0.0
2017-Jul-24 20:29N 59°30' E 024°56'0 0.0
2017-Jul-24 19:58N 59°30' E 024°56'0 0.0
2017-Jul-24 19:29N 59°30' E 024°56'0 0.0
2017-Jul-24 18:58N 59°30' E 024°56'0 0.0
2017-Jul-24 18:28N 59°30' E 024°56'0 0.0
2017-Jul-24 17:58N 59°30' E 024°56'0 0.0
2017-Jul-24 17:28N 59°30' E 024°56'0 0.0
2017-Jul-24 16:58N 59°30' E 024°56'0 0.0
2017-Jul-24 16:28N 59°30' E 024°56'0 0.0
2017-Jul-24 15:58N 59°30' E 024°56'0 0.0
2017-Jul-24 12:58N 59°30' E 024°56'0 0.0
2017-Jul-24 12:28N 59°30' E 024°56'0 0.0
2017-Jul-24 11:59N 59°30' E 024°56'0 0.0
2017-Jul-24 11:29N 59°30' E 024°56'0 0.0
2017-Jul-24 10:59N 59°30' E 024°56'0 0.0
2017-Jul-24 10:30N 59°30' E 024°56'0 0.0
2017-Jul-24 10:00N 59°30' E 024°56'0 0.0
2017-Jul-24 09:27N 59°30' E 024°56'0 0.0
2017-Jul-24 08:59N 59°30' E 024°56'0 0.0
2017-Jul-24 08:28N 59°30' E 024°56'0 0.0
2017-Jul-24 08:00N 59°30' E 024°56'0 0.0
2017-Jul-24 07:25N 59°30' E 024°56'0 0.0
2017-Jul-24 06:58N 59°30' E 024°56'0 0.0
2017-Jul-24 06:29N 59°30' E 024°56'0 0.0
2017-Jul-24 06:00N 59°30' E 024°56'0 0.0
2017-Jul-24 05:29N 59°30' E 024°56'0 0.0
2017-Jul-24 04:54N 59°30' E 024°56'0 0.0
2017-Jul-24 04:29N 59°30' E 024°56'0 0.0
2017-Jul-24 03:59N 59°30' E 024°56'0 0.0
2017-Jul-24 03:29N 59°30' E 024°56'0 0.0
2017-Jul-24 02:59N 59°30' E 024°56'0 0.0
2017-Jul-24 02:30N 59°30' E 024°56'0 0.0
2017-Jul-24 01:58N 59°30' E 024°56'0 0.0
2017-Jul-24 01:30N 59°30' E 024°56'0 0.0
2017-Jul-24 00:59N 59°30' E 024°56'0 0.0
2017-Jul-24 00:27N 59°30' E 024°56'0 0.0
2017-Jul-23 23:58N 59°30' E 024°56'0 0.0
2017-Jul-23 23:28N 59°30' E 024°56'0 0.0
2017-Jul-23 23:00N 59°30' E 024°56'0 0.0
2017-Jul-23 22:29N 59°30' E 024°56'0 0.0
2017-Jul-23 21:59N 59°30' E 024°56'0 0.0
2017-Jul-23 21:29N 59°30' E 024°56'0 0.0
2017-Jul-23 20:58N 59°30' E 024°56'0 0.0
2017-Jul-23 20:29N 59°30' E 024°56'0 0.0
2017-Jul-23 20:00N 59°30' E 024°56'0 0.0
2017-Jul-23 19:29N 59°30' E 024°56'0 0.0
2017-Jul-23 18:58N 59°30' E 024°56'0 0.0
2017-Jul-23 18:28N 59°30' E 024°56'0 0.0
2017-Jul-23 17:58N 59°30' E 024°56'0 0.0
2017-Jul-23 17:28N 59°30' E 024°56'0 0.0
2017-Jul-23 16:58N 59°30' E 024°56'0 0.0
2017-Jul-23 16:28N 59°30' E 024°56'0 0.0
2017-Jul-23 15:58N 59°30' E 024°56'0 0.0
2017-Jul-23 15:28N 59°30' E 024°56'0 0.0
2017-Jul-23 14:58N 59°30' E 024°56'0 0.0
2017-Jul-23 14:26N 59°30' E 024°56'0 0.0
2017-Jul-23 13:58N 59°30' E 024°56'0 0.0
2017-Jul-23 13:30N 59°30' E 024°56'0 0.0
2017-Jul-23 12:58N 59°30' E 024°56'0 0.0
2017-Jul-23 12:25N 59°30' E 024°56'0 0.0
2017-Jul-23 11:58N 59°30' E 024°56'0 0.0
2017-Jul-23 11:28N 59°30' E 024°56'0 0.0
2017-Jul-23 10:58N 59°30' E 024°56'0 0.0
2017-Jul-23 10:28N 59°30' E 024°56'0 0.0
2017-Jul-23 09:58N 59°30' E 024°56'0 0.0
2017-Jul-23 09:28N 59°30' E 024°56'0 0.0
2017-Jul-23 08:55N 59°30' E 024°56'0 0.0
2017-Jul-23 08:28N 59°30' E 024°56'0 0.0
2017-Jul-23 07:58N 59°30' E 024°56'0 0.0
2017-Jul-23 07:28N 59°30' E 024°56'0 0.0
2017-Jul-23 06:58N 59°30' E 024°56'0 0.0
2017-Jul-23 06:28N 59°30' E 024°56'0 0.0
2017-Jul-23 05:58N 59°30' E 024°56'0 0.0
2017-Jul-23 05:28N 59°30' E 024°56'0 0.0
2017-Jul-23 04:58N 59°30' E 024°56'0 0.0
2017-Jul-23 04:28N 59°30' E 024°56'0 0.0
2017-Jul-23 03:58N 59°30' E 024°56'0 0.0
2017-Jul-23 03:28N 59°30' E 024°56'0 0.0
2017-Jul-23 02:58N 59°30' E 024°56'0 0.0
2017-Jul-23 02:28N 59°30' E 024°56'0 0.0
2017-Jul-23 01:58N 59°30' E 024°56'0 0.0
2017-Jul-23 01:28N 59°30' E 024°56'0 0.0
2017-Jul-23 00:58N 59°30' E 024°56'0 0.0
2017-Jul-23 00:28N 59°30' E 024°56'0 0.0
2017-Jul-22 23:58N 59°30' E 024°56'0 0.0
2017-Jul-22 23:28N 59°30' E 024°56'0 0.0
2017-Jul-22 22:58N 59°30' E 024°56'0 0.0
2017-Jul-22 22:28N 59°30' E 024°56'0 0.0
2017-Jul-22 21:58N 59°30' E 024°56'0 0.0
2017-Jul-22 21:28N 59°30' E 024°56'0 0.0
2017-Jul-22 21:00N 59°30' E 024°56'0 0.0
2017-Jul-22 20:30N 59°30' E 024°56'0 0.0
2017-Jul-22 20:00N 59°30' E 024°56'0 0.0
2017-Jul-22 19:29N 59°30' E 024°56'0 0.0
2017-Jul-22 18:58N 59°30' E 024°56'0 0.0
2017-Jul-22 18:28N 59°30' E 024°56'0 0.0
2017-Jul-22 17:58N 59°30' E 024°56'0 0.0
2017-Jul-22 17:28N 59°30' E 024°56'0 0.0
2017-Jul-22 16:58N 59°30' E 024°56'0 0.0
2017-Jul-22 16:28N 59°30' E 024°56'0 0.0
2017-Jul-22 15:58N 59°30' E 024°56'0 0.0
2017-Jul-22 15:28N 59°30' E 024°56'0 0.0
2017-Jul-22 14:58N 59°30' E 024°56'1 1.4
2017-Jul-22 14:00N 59°31' E 024°58'510.3
2017-Jul-22 13:30N 59°35' E 024°52'510.3
2017-Jul-22 13:00N 59°37' E 024°43'510.7
2017-Jul-22 12:30N 59°38' E 024°32'611.0
2017-Jul-22 12:00N 59°38' E 024°22'611.2
2017-Jul-22 11:30N 59°37' E 024°11'510.9
2017-Jul-22 11:00N 59°36' E 023°60'510.7
2017-Jul-22 10:30N 59°36' E 023°49'510.7
2017-Jul-22 10:00N 59°35' E 023°39'510.8
2017-Jul-22 09:30N 59°33' E 023°29'611.0
2017-Jul-22 09:00N 59°31' E 023°19'511.0
2017-Jul-22 08:30N 59°29' E 023°08'510.9
2017-Jul-22 08:00N 59°28' E 022°58'510.9
2017-Jul-22 07:30N 59°26' E 022°48'510.8
2017-Jul-22 07:01N 59°24' E 022°38'510.8
2017-Jul-22 06:30N 59°21' E 022°29'510.7
2017-Jul-22 06:00N 59°17' E 022°21'611.2
2017-Jul-22 05:30N 59°14' E 022°12'510.9
2017-Jul-22 05:00N 59°11' E 022°04'511.0
2017-Jul-22 04:30N 59°08' E 021°55'510.9
2017-Jul-22 04:00N 59°04' E 021°47'510.5
2017-Jul-22 03:30N 59°00' E 021°40'510.7
2017-Jul-22 02:59N 58°56' E 021°33'610.9
2017-Jul-22 02:27N 58°51' E 021°27'510.8
2017-Jul-22 02:00N 58°47' E 021°21'610.7
2017-Jul-22 01:25N 58°42' E 021°14'17210.6
2017-Jul-21 09:11N 56°31' E 017°47'210.7
2017-Jul-21 09:00N 56°30' E 017°45'510.8
2017-Jul-21 08:30N 56°26' E 017°37'510.8
2017-Jul-21 08:00N 56°23' E 017°30'510.7
2017-Jul-21 07:30N 56°20' E 017°22'510.5
2017-Jul-21 07:00N 56°16' E 017°15'510.5
2017-Jul-21 06:30N 56°13' E 017°08'510.5
2017-Jul-21 06:00N 56°09' E 017°00'510.9
2017-Jul-21 05:30N 56°06' E 016°53'510.4
2017-Jul-21 05:00N 56°03' E 016°45'510.3
2017-Jul-21 04:30N 56°01' E 016°37'510.3
2017-Jul-21 04:00N 55°58' E 016°29'510.2
2017-Jul-21 03:30N 55°56' E 016°21'510.3
2017-Jul-21 03:00N 55°53' E 016°13'510.2
2017-Jul-21 02:30N 55°51' E 016°05'510.1
2017-Jul-21 02:00N 55°48' E 015°57'5 9.9
2017-Jul-21 01:30N 55°46' E 015°49'510.0
2017-Jul-21 01:00N 55°44' E 015°41'510.1
2017-Jul-21 00:30N 55°41' E 015°33'510.1
2017-Jul-21 00:00N 55°39' E 015°26'510.0
2017-Jul-20 23:30N 55°36' E 015°18'510.1
2017-Jul-20 23:00N 55°34' E 015°10'510.2
2017-Jul-20 22:30N 55°31' E 015°02'510.3
2017-Jul-20 22:00N 55°29' E 014°54'510.4
2017-Jul-20 21:30N 55°26' E 014°46'510.0
2017-Jul-20 21:00N 55°24' E 014°38'510.4
2017-Jul-20 20:30N 55°20' E 014°33'510.5
2017-Jul-20 20:00N 55°16' E 014°27'510.7
2017-Jul-20 19:30N 55°12' E 014°21'5 9.5
2017-Jul-20 19:00N 55°10' E 014°13'610.4
2017-Jul-20 18:28N 55°11' E 014°03'510.3
2017-Jul-20 18:00N 55°11' E 013°55'510.2
2017-Jul-20 17:30N 55°12' E 013°46'5 9.8
2017-Jul-20 17:00N 55°12' E 013°37'5 9.9
2017-Jul-20 16:30N 55°12' E 013°29'5 9.8
2017-Jul-20 15:57N 55°13' E 013°19'5 9.7
2017-Jul-20 15:25N 55°13' E 013°10'4 9.9
2017-Jul-20 15:00N 55°13' E 013°03'10 9.8
2017-Jul-20 14:00N 55°16' E 012°47'5 9.7
2017-Jul-20 13:30N 55°18' E 012°39'5 9.3
2017-Jul-20 13:00N 55°22' E 012°39'510.0
2017-Jul-20 12:30N 55°27' E 012°41'5 9.8
2017-Jul-20 12:00N 55°32' E 012°42'5 9.0
2017-Jul-20 11:30N 55°37' E 012°42'4 8.9
2017-Jul-20 11:00N 55°41' E 012°41'5 9.4
2017-Jul-20 10:30N 55°46' E 012°40'5 9.6
2017-Jul-20 10:00N 55°50' E 012°40'5 9.7
2017-Jul-20 09:30N 55°55' E 012°38'5 9.5
2017-Jul-20 09:00N 56°00' E 012°38'4 8.0
2017-Jul-20 08:30N 56°04' E 012°37'4 8.2
2017-Jul-20 08:00N 56°07' E 012°32'5 9.7
2017-Jul-20 07:30N 56°09' E 012°24'510.4
2017-Jul-20 06:59N 56°12' E 012°16'32 9.7
2017-Jul-20 03:42N 56°42' E 011°53'210.3
2017-Jul-20 03:29N 56°44' E 011°52'510.5
2017-Jul-20 03:00N 56°49' E 011°50'510.5
2017-Jul-20 02:30N 56°54' E 011°46'510.6
2017-Jul-20 02:00N 56°59' E 011°43'810.8
2017-Jul-20 01:13N 57°06' E 011°37'210.5
2017-Jul-20 01:00N 57°09' E 011°36'510.3
2017-Jul-20 00:30N 57°13' E 011°32'510.0
2017-Jul-19 23:59N 57°18' E 011°29'5 9.9
2017-Jul-19 23:29N 57°23' E 011°26'510.1
2017-Jul-19 23:00N 57°27' E 011°22'510.1
2017-Jul-19 22:30N 57°31' E 011°16'510.0
2017-Jul-19 22:00N 57°34' E 011°08'510.8
2017-Jul-19 21:30N 57°38' E 011°01'510.6
2017-Jul-19 21:00N 57°42' E 010°54'510.6
2017-Jul-19 20:30N 57°45' E 010°47'5 9.7
2017-Jul-19 19:58N 57°47' E 010°38'610.4
2017-Jul-19 19:26N 57°47' E 010°27'1710.4
2017-Jul-19 17:50N 57°45' E 009°56'910.0
2017-Jul-19 16:58N 57°45' E 009°40'510.2
2017-Jul-19 16:29N 57°44' E 009°31'510.2
2017-Jul-19 16:00N 57°44' E 009°22'510.5
2017-Jul-19 15:30N 57°43' E 009°12'2410.6
2017-Jul-19 13:16N 57°41' E 008°28'2410.6
2017-Jul-19 10:59N 57°39' E 007°43'2210.2
2017-Jul-19 08:46N 57°40' E 007°01'310.4
2017-Jul-19 08:30N 57°40' E 006°56'510.6
2017-Jul-19 08:00N 57°40' E 006°46'510.8
2017-Jul-19 07:29N 57°40' E 006°36'511.0
2017-Jul-19 07:00N 57°41' E 006°26'610.9
2017-Jul-19 06:30N 57°43' E 006°16'510.8
2017-Jul-19 06:00N 57°44' E 006°06'3210.5
2017-Jul-19 02:58N 57°52' E 005°08'24910.6
2017-Jul-18 03:24N 58°41' W 002°37'411.3
2017-Jul-18 03:00N 58°42' W 002°45'713.2
2017-Jul-18 02:30N 58°43' W 002°58'714.2
2017-Jul-18 02:00N 58°43' W 003°11'611.7
2017-Jul-18 01:30N 58°43' W 003°23'611.0
2017-Jul-18 01:00N 58°42' W 003°33'510.8
2017-Jul-18 00:30N 58°42' W 003°44'510.6
2017-Jul-18 00:00N 58°42' W 003°54'510.6
2017-Jul-17 23:30N 58°42' W 004°04'710.2
2017-Jul-17 22:51N 58°41' W 004°17'710.0
2017-Jul-17 22:10N 58°41' W 004°30'163 9.9
2017-Jul-17 05:41N 56°32' W 007°36'210.3
2017-Jul-17 05:30N 56°31' W 007°38'1210.1
2017-Jul-17 04:20N 56°21' W 007°50'33 9.7
2017-Jul-17 00:57N 55°53' W 008°22'6 9.5
2017-Jul-17 00:21N 55°49' W 008°27'88 9.8
2017-Jul-16 15:23N 54°35' W 009°54'1210.5
2017-Jul-16 14:16N 54°26' W 010°05'410.7
2017-Jul-16 13:55N 54°23' W 010°08'511.0
2017-Jul-16 13:29N 54°19' W 010°12'610.8
2017-Jul-16 12:59N 54°14' W 010°17'  
Track history (hours):
 
Tides and Currents Weather Stations Pressure Air Temp Water Temp Dewpoint Dewpoint Depression Visibility Wind Speed Wind Dir Waves Ship Positions

Karmel

Last reported at 2017-Jul-26 12:29 UTC. Time now 2017-Jul-26 12:34 UTC.
Position N 60°43' E 028°44'.

Length 90 m; draft 3.9 m.

Type: Cargo ship. MMSI: 256632000.

Date/timePositionNaut miles runAvg speedWind from/ knotsBaromVisibWave heightAir tempDewpointWater temp
2017-Jul-26 12:29N 60°43' E 028°44'0 0.0
2017-Jul-26 11:59N 60°43' E 028°44'0 0.0
2017-Jul-26 11:29N 60°43' E 028°44'0 0.0
2017-Jul-26 10:59N 60°43' E 028°44'0 0.0
2017-Jul-26 10:29N 60°43' E 028°44'0 0.0
2017-Jul-26 09:59N 60°43' E 028°44'0 0.0
2017-Jul-26 09:29N 60°43' E 028°44'0 0.0
2017-Jul-26 08:59N 60°43' E 028°44'0 0.0
2017-Jul-26 08:29N 60°43' E 028°44'0 0.0
2017-Jul-26 07:59N 60°43' E 028°44'0 0.0
2017-Jul-26 07:28N 60°43' E 028°44'0 0.0
2017-Jul-26 06:59N 60°43' E 028°44'0 0.0
2017-Jul-26 06:28N 60°43' E 028°44'0 0.0
2017-Jul-26 05:58N 60°43' E 028°44'0 0.0
2017-Jul-26 05:29N 60°43' E 028°44'0 0.0
2017-Jul-26 04:59N 60°43' E 028°44'0 0.0
2017-Jul-26 04:29N 60°43' E 028°44'0 0.0
2017-Jul-26 03:59N 60°43' E 028°44'0 0.0
2017-Jul-26 03:29N 60°43' E 028°44'1 2.0
2017-Jul-26 03:01N 60°42' E 028°43'4 8.9
2017-Jul-26 02:31N 60°39' E 028°36'4 8.1
2017-Jul-26 02:00N 60°36' E 028°30'4 8.7
2017-Jul-26 01:30N 60°34' E 028°22'0 0.2
2017-Jul-26 01:00N 60°34' E 028°22'0 0.0
2017-Jul-26 00:25N 60°34' E 028°22'0 0.0
2017-Jul-26 00:00N 60°34' E 028°22'0 0.0
2017-Jul-25 23:30N 60°34' E 028°22'0 0.0
2017-Jul-25 23:00N 60°34' E 028°22'0 0.0
2017-Jul-25 22:30N 60°34' E 028°22'0 0.0
2017-Jul-25 22:00N 60°34' E 028°22'0 0.0
2017-Jul-25 21:30N 60°34' E 028°22'0 0.0
2017-Jul-25 21:00N 60°34' E 028°22'0 0.1
2017-Jul-25 20:30N 60°34' E 028°22'0 0.0
2017-Jul-25 20:00N 60°34' E 028°22'0 0.0
2017-Jul-25 19:30N 60°34' E 028°22'0 0.1
2017-Jul-25 19:00N 60°34' E 028°22'1 2.8
2017-Jul-25 18:30N 60°33' E 028°22'510.8
2017-Jul-25 18:00N 60°28' E 028°20'510.9
2017-Jul-25 17:30N 60°25' E 028°10'510.7
2017-Jul-25 17:00N 60°22' E 028°02'611.2
2017-Jul-25 16:30N 60°17' E 027°55'611.3
2017-Jul-25 16:01N 60°13' E 027°49'611.0
2017-Jul-25 15:30N 60°09' E 027°40'611.2
2017-Jul-25 15:00N 60°06' E 027°31'1111.1
2017-Jul-25 14:00N 60°01' E 027°12'511.0
2017-Jul-25 13:30N 59°58' E 027°02'611.0
2017-Jul-25 13:00N 59°59' E 026°51'510.9
2017-Jul-25 12:30N 59°59' E 026°40'511.0
2017-Jul-25 12:01N 59°58' E 026°30'611.0
2017-Jul-25 11:30N 59°56' E 026°19'611.2
2017-Jul-25 11:00N 59°55' E 026°08'611.1
2017-Jul-25 10:30N 59°53' E 025°58'611.0
2017-Jul-25 10:00N 59°51' E 025°47'510.9
2017-Jul-25 09:30N 59°50' E 025°37'510.5
2017-Jul-25 09:00N 59°48' E 025°27'611.2
2017-Jul-25 08:30N 59°44' E 025°21'611.1
2017-Jul-25 08:00N 59°39' E 025°15'510.9
2017-Jul-25 07:30N 59°35' E 025°08'510.8
2017-Jul-25 07:00N 59°31' E 025°00'2 4.4
2017-Jul-25 06:28N 59°30' E 024°56'0 0.0
2017-Jul-25 05:58N 59°30' E 024°56'0 0.0
2017-Jul-25 05:28N 59°30' E 024°56'0 0.0
2017-Jul-25 04:58N 59°30' E 024°56'0 0.0
2017-Jul-25 04:28N 59°30' E 024°56'0 0.0
2017-Jul-25 03:58N 59°30' E 024°56'0 0.0
2017-Jul-25 03:28N 59°30' E 024°56'0 0.0
2017-Jul-25 02:58N 59°30' E 024°56'0 0.0
2017-Jul-25 02:28N 59°30' E 024°56'0 0.0
2017-Jul-25 01:58N 59°30' E 024°56'0 0.0
2017-Jul-25 01:28N 59°30' E 024°56'0 0.0
2017-Jul-25 00:58N 59°30' E 024°56'0 0.0
2017-Jul-25 00:25N 59°30' E 024°56'0 0.0
2017-Jul-24 23:58N 59°30' E 024°56'0 0.0
2017-Jul-24 23:28N 59°30' E 024°56'0 0.0
2017-Jul-24 22:58N 59°30' E 024°56'0 0.0
2017-Jul-24 22:28N 59°30' E 024°56'0 0.0
2017-Jul-24 21:58N 59°30' E 024°56'0 0.0
2017-Jul-24 21:28N 59°30' E 024°56'0 0.0
2017-Jul-24 20:58N 59°30' E 024°56'0 0.0
2017-Jul-24 20:29N 59°30' E 024°56'0 0.0
2017-Jul-24 19:58N 59°30' E 024°56'0 0.0
2017-Jul-24 19:29N 59°30' E 024°56'0 0.0
2017-Jul-24 18:58N 59°30' E 024°56'0 0.0
2017-Jul-24 18:28N 59°30' E 024°56'0 0.0
2017-Jul-24 17:58N 59°30' E 024°56'0 0.0
2017-Jul-24 17:28N 59°30' E 024°56'0 0.0
2017-Jul-24 16:58N 59°30' E 024°56'0 0.0
2017-Jul-24 16:28N 59°30' E 024°56'0 0.0
2017-Jul-24 15:58N 59°30' E 024°56'0 0.0
2017-Jul-24 12:58N 59°30' E 024°56'0 0.0
2017-Jul-24 12:28N 59°30' E 024°56'0 0.0
2017-Jul-24 11:59N 59°30' E 024°56'0 0.0
2017-Jul-24 11:29N 59°30' E 024°56'0 0.0
2017-Jul-24 10:59N 59°30' E 024°56'0 0.0
2017-Jul-24 10:30N 59°30' E 024°56'0 0.0
2017-Jul-24 10:00N 59°30' E 024°56'0 0.0
2017-Jul-24 09:27N 59°30' E 024°56'0 0.0
2017-Jul-24 08:59N 59°30' E 024°56'0 0.0
2017-Jul-24 08:28N 59°30' E 024°56'0 0.0
2017-Jul-24 08:00N 59°30' E 024°56'0 0.0
2017-Jul-24 07:25N 59°30' E 024°56'0 0.0
2017-Jul-24 06:58N 59°30' E 024°56'0 0.0
2017-Jul-24 06:29N 59°30' E 024°56'0 0.0
2017-Jul-24 06:00N 59°30' E 024°56'0 0.0
2017-Jul-24 05:29N 59°30' E 024°56'0 0.0
2017-Jul-24 04:54N 59°30' E 024°56'0 0.0
2017-Jul-24 04:29N 59°30' E 024°56'0 0.0
2017-Jul-24 03:59N 59°30' E 024°56'0 0.0
2017-Jul-24 03:29N 59°30' E 024°56'0 0.0
2017-Jul-24 02:59N 59°30' E 024°56'0 0.0
2017-Jul-24 02:30N 59°30' E 024°56'0 0.0
2017-Jul-24 01:58N 59°30' E 024°56'0 0.0
2017-Jul-24 01:30N 59°30' E 024°56'0 0.0
2017-Jul-24 00:59N 59°30' E 024°56'0 0.0
2017-Jul-24 00:27N 59°30' E 024°56'0 0.0
2017-Jul-23 23:58N 59°30' E 024°56'0 0.0
2017-Jul-23 23:28N 59°30' E 024°56'0 0.0
2017-Jul-23 23:00N 59°30' E 024°56'0 0.0
2017-Jul-23 22:29N 59°30' E 024°56'0 0.0
2017-Jul-23 21:59N 59°30' E 024°56'0 0.0
2017-Jul-23 21:29N 59°30' E 024°56'0 0.0
2017-Jul-23 20:58N 59°30' E 024°56'0 0.0
2017-Jul-23 20:29N 59°30' E 024°56'0 0.0
2017-Jul-23 20:00N 59°30' E 024°56'0 0.0
2017-Jul-23 19:29N 59°30' E 024°56'0 0.0
2017-Jul-23 18:58N 59°30' E 024°56'0 0.0
2017-Jul-23 18:28N 59°30' E 024°56'0 0.0
2017-Jul-23 17:58N 59°30' E 024°56'0 0.0
2017-Jul-23 17:28N 59°30' E 024°56'0 0.0
2017-Jul-23 16:58N 59°30' E 024°56'0 0.0
2017-Jul-23 16:28N 59°30' E 024°56'0 0.0
2017-Jul-23 15:58N 59°30' E 024°56'0 0.0
2017-Jul-23 15:28N 59°30' E 024°56'0 0.0
2017-Jul-23 14:58N 59°30' E 024°56'0 0.0
2017-Jul-23 14:26N 59°30' E 024°56'0 0.0
2017-Jul-23 13:58N 59°30' E 024°56'0 0.0
2017-Jul-23 13:30N 59°30' E 024°56'0 0.0
2017-Jul-23 12:58N 59°30' E 024°56'0 0.0
2017-Jul-23 12:25N 59°30' E 024°56'0 0.0
2017-Jul-23 11:58N 59°30' E 024°56'0 0.0
2017-Jul-23 11:28N 59°30' E 024°56'0 0.0
2017-Jul-23 10:58N 59°30' E 024°56'0 0.0
2017-Jul-23 10:28N 59°30' E 024°56'0 0.0
2017-Jul-23 09:58N 59°30' E 024°56'0 0.0
2017-Jul-23 09:28N 59°30' E 024°56'0 0.0
2017-Jul-23 08:55N 59°30' E 024°56'0 0.0
2017-Jul-23 08:28N 59°30' E 024°56'0 0.0
2017-Jul-23 07:58N 59°30' E 024°56'0 0.0
2017-Jul-23 07:28N 59°30' E 024°56'0 0.0
2017-Jul-23 06:58N 59°30' E 024°56'0 0.0
2017-Jul-23 06:28N 59°30' E 024°56'0 0.0
2017-Jul-23 05:58N 59°30' E 024°56'0 0.0
2017-Jul-23 05:28N 59°30' E 024°56'0 0.0
2017-Jul-23 04:58N 59°30' E 024°56'0 0.0
2017-Jul-23 04:28N 59°30' E 024°56'0 0.0
2017-Jul-23 03:58N 59°30' E 024°56'0 0.0
2017-Jul-23 03:28N 59°30' E 024°56'0 0.0
2017-Jul-23 02:58N 59°30' E 024°56'0 0.0
2017-Jul-23 02:28N 59°30' E 024°56'0 0.0
2017-Jul-23 01:58N 59°30' E 024°56'0 0.0
2017-Jul-23 01:28N 59°30' E 024°56'0 0.0
2017-Jul-23 00:58N 59°30' E 024°56'0 0.0
2017-Jul-23 00:28N 59°30' E 024°56'0 0.0
2017-Jul-22 23:58N 59°30' E 024°56'0 0.0
2017-Jul-22 23:28N 59°30' E 024°56'0 0.0
2017-Jul-22 22:58N 59°30' E 024°56'0 0.0
2017-Jul-22 22:28N 59°30' E 024°56'0 0.0
2017-Jul-22 21:58N 59°30' E 024°56'0 0.0
2017-Jul-22 21:28N 59°30' E 024°56'0 0.0
2017-Jul-22 21:00N 59°30' E 024°56'0 0.0
2017-Jul-22 20:30N 59°30' E 024°56'0 0.0
2017-Jul-22 20:00N 59°30' E 024°56'0 0.0
2017-Jul-22 19:29N 59°30' E 024°56'0 0.0
2017-Jul-22 18:58N 59°30' E 024°56'0 0.0
2017-Jul-22 18:28N 59°30' E 024°56'0 0.0
2017-Jul-22 17:58N 59°30' E 024°56'0 0.0
2017-Jul-22 17:28N 59°30' E 024°56'0 0.0
2017-Jul-22 16:58N 59°30' E 024°56'0 0.0
2017-Jul-22 16:28N 59°30' E 024°56'0 0.0
2017-Jul-22 15:58N 59°30' E 024°56'0 0.0
2017-Jul-22 15:28N 59°30' E 024°56'0 0.0
2017-Jul-22 14:58N 59°30' E 024°56'1 1.4
2017-Jul-22 14:00N 59°31' E 024°58'510.3
2017-Jul-22 13:30N 59°35' E 024°52'510.3
2017-Jul-22 13:00N 59°37' E 024°43'510.7
2017-Jul-22 12:30N 59°38' E 024°32'611.0
2017-Jul-22 12:00N 59°38' E 024°22'611.2
2017-Jul-22 11:30N 59°37' E 024°11'510.9
2017-Jul-22 11:00N 59°36' E 023°60'510.7
2017-Jul-22 10:30N 59°36' E 023°49'510.7
2017-Jul-22 10:00N 59°35' E 023°39'510.8
2017-Jul-22 09:30N 59°33' E 023°29'611.0
2017-Jul-22 09:00N 59°31' E 023°19'511.0
2017-Jul-22 08:30N 59°29' E 023°08'510.9
2017-Jul-22 08:00N 59°28' E 022°58'510.9
2017-Jul-22 07:30N 59°26' E 022°48'510.8
2017-Jul-22 07:01N 59°24' E 022°38'510.8
2017-Jul-22 06:30N 59°21' E 022°29'510.7
2017-Jul-22 06:00N 59°17' E 022°21'611.2
2017-Jul-22 05:30N 59°14' E 022°12'510.9
2017-Jul-22 05:00N 59°11' E 022°04'511.0
2017-Jul-22 04:30N 59°08' E 021°55'510.9
2017-Jul-22 04:00N 59°04' E 021°47'510.5
2017-Jul-22 03:30N 59°00' E 021°40'510.7
2017-Jul-22 02:59N 58°56' E 021°33'610.9
2017-Jul-22 02:27N 58°51' E 021°27'510.8
2017-Jul-22 02:00N 58°47' E 021°21'610.7
2017-Jul-22 01:25N 58°42' E 021°14'17210.6
2017-Jul-21 09:11N 56°31' E 017°47'210.7
2017-Jul-21 09:00N 56°30' E 017°45'510.8
2017-Jul-21 08:30N 56°26' E 017°37'510.8
2017-Jul-21 08:00N 56°23' E 017°30'510.7
2017-Jul-21 07:30N 56°20' E 017°22'510.5
2017-Jul-21 07:00N 56°16' E 017°15'510.5
2017-Jul-21 06:30N 56°13' E 017°08'510.5
2017-Jul-21 06:00N 56°09' E 017°00'510.9
2017-Jul-21 05:30N 56°06' E 016°53'510.4
2017-Jul-21 05:00N 56°03' E 016°45'510.3
2017-Jul-21 04:30N 56°01' E 016°37'510.3
2017-Jul-21 04:00N 55°58' E 016°29'510.2
2017-Jul-21 03:30N 55°56' E 016°21'510.3
2017-Jul-21 03:00N 55°53' E 016°13'510.2
2017-Jul-21 02:30N 55°51' E 016°05'510.1
2017-Jul-21 02:00N 55°48' E 015°57'5 9.9
2017-Jul-21 01:30N 55°46' E 015°49'510.0
2017-Jul-21 01:00N 55°44' E 015°41'510.1
2017-Jul-21 00:30N 55°41' E 015°33'510.1
2017-Jul-21 00:00N 55°39' E 015°26'510.0
2017-Jul-20 23:30N 55°36' E 015°18'510.1
2017-Jul-20 23:00N 55°34' E 015°10'510.2
2017-Jul-20 22:30N 55°31' E 015°02'510.3
2017-Jul-20 22:00N 55°29' E 014°54'510.4
2017-Jul-20 21:30N 55°26' E 014°46'510.0
2017-Jul-20 21:00N 55°24' E 014°38'510.4
2017-Jul-20 20:30N 55°20' E 014°33'510.5
2017-Jul-20 20:00N 55°16' E 014°27'510.7
2017-Jul-20 19:30N 55°12' E 014°21'5 9.5
2017-Jul-20 19:00N 55°10' E 014°13'610.4
2017-Jul-20 18:28N 55°11' E 014°03'510.3
2017-Jul-20 18:00N 55°11' E 013°55'510.2
2017-Jul-20 17:30N 55°12' E 013°46'5 9.8
2017-Jul-20 17:00N 55°12' E 013°37'5 9.9
2017-Jul-20 16:30N 55°12' E 013°29'5 9.8
2017-Jul-20 15:57N 55°13' E 013°19'5 9.7
2017-Jul-20 15:25N 55°13' E 013°10'4 9.9
2017-Jul-20 15:00N 55°13' E 013°03'10 9.8
2017-Jul-20 14:00N 55°16' E 012°47'5 9.7
2017-Jul-20 13:30N 55°18' E 012°39'5 9.3
2017-Jul-20 13:00N 55°22' E 012°39'510.0
2017-Jul-20 12:30N 55°27' E 012°41'5 9.8
2017-Jul-20 12:00N 55°32' E 012°42'5 9.0
2017-Jul-20 11:30N 55°37' E 012°42'4 8.9
2017-Jul-20 11:00N 55°41' E 012°41'5 9.4
2017-Jul-20 10:30N 55°46' E 012°40'5 9.6
2017-Jul-20 10:00N 55°50' E 012°40'5 9.7
2017-Jul-20 09:30N 55°55' E 012°38'5 9.5
2017-Jul-20 09:00N 56°00' E 012°38'4 8.0
2017-Jul-20 08:30N 56°04' E 012°37'4 8.2
2017-Jul-20 08:00N 56°07' E 012°32'5 9.7
2017-Jul-20 07:30N 56°09' E 012°24'510.4
2017-Jul-20 06:59N 56°12' E 012°16'32 9.7
2017-Jul-20 03:42N 56°42' E 011°53'210.3
2017-Jul-20 03:29N 56°44' E 011°52'510.5
2017-Jul-20 03:00N 56°49' E 011°50'510.5
2017-Jul-20 02:30N 56°54' E 011°46'510.6
2017-Jul-20 02:00N 56°59' E 011°43'810.8
2017-Jul-20 01:13N 57°06' E 011°37'210.5
2017-Jul-20 01:00N 57°09' E 011°36'510.3
2017-Jul-20 00:30N 57°13' E 011°32'510.0
2017-Jul-19 23:59N 57°18' E 011°29'5 9.9
2017-Jul-19 23:29N 57°23' E 011°26'510.1
2017-Jul-19 23:00N 57°27' E 011°22'510.1
2017-Jul-19 22:30N 57°31' E 011°16'510.0
2017-Jul-19 22:00N 57°34' E 011°08'510.8
2017-Jul-19 21:30N 57°38' E 011°01'510.6
2017-Jul-19 21:00N 57°42' E 010°54'510.6
2017-Jul-19 20:30N 57°45' E 010°47'5 9.7
2017-Jul-19 19:58N 57°47' E 010°38'610.4
2017-Jul-19 19:26N 57°47' E 010°27'1710.4
2017-Jul-19 17:50N 57°45' E 009°56'910.0
2017-Jul-19 16:58N 57°45' E 009°40'510.2
2017-Jul-19 16:29N 57°44' E 009°31'510.2
2017-Jul-19 16:00N 57°44' E 009°22'510.5
2017-Jul-19 15:30N 57°43' E 009°12'2410.6
2017-Jul-19 13:16N 57°41' E 008°28'2410.6
2017-Jul-19 10:59N 57°39' E 007°43'2210.2
2017-Jul-19 08:46N 57°40' E 007°01'310.4
2017-Jul-19 08:30N 57°40' E 006°56'510.6
2017-Jul-19 08:00N 57°40' E 006°46'510.8
2017-Jul-19 07:29N 57°40' E 006°36'511.0
2017-Jul-19 07:00N 57°41' E 006°26'610.9
2017-Jul-19 06:30N 57°43' E 006°16'510.8
2017-Jul-19 06:00N 57°44' E 006°06'3210.5
2017-Jul-19 02:58N 57°52' E 005°08'24910.6
2017-Jul-18 03:24N 58°41' W 002°37'411.3
2017-Jul-18 03:00N 58°42' W 002°45'713.2
2017-Jul-18 02:30N 58°43' W 002°58'714.2
2017-Jul-18 02:00N 58°43' W 003°11'611.7
2017-Jul-18 01:30N 58°43' W 003°23'611.0
2017-Jul-18 01:00N 58°42' W 003°33'510.8
2017-Jul-18 00:30N 58°42' W 003°44'510.6
2017-Jul-18 00:00N 58°42' W 003°54'510.6
2017-Jul-17 23:30N 58°42' W 004°04'710.2
2017-Jul-17 22:51N 58°41' W 004°17'710.0
2017-Jul-17 22:10N 58°41' W 004°30'163 9.9
2017-Jul-17 05:41N 56°32' W 007°36'210.3
2017-Jul-17 05:30N 56°31' W 007°38'1210.1
2017-Jul-17 04:20N 56°21' W 007°50'33 9.7
2017-Jul-17 00:57N 55°53' W 008°22'6 9.5
2017-Jul-17 00:21N 55°49' W 008°27'88 9.8
2017-Jul-16 15:23N 54°35' W 009°54'1210.5
2017-Jul-16 14:16N 54°26' W 010°05'410.7
2017-Jul-16 13:55N 54°23' W 010°08'511.0
2017-Jul-16 13:29N 54°19' W 010°12'610.8
2017-Jul-16 12:59N 54°14' W 010°17'  

Dump ship's entire track history